createdAt,value
2018-08-07T00:01:57.009Z,29.90
2018-08-07T00:06:52.008Z,29.90
2018-08-07T00:09:19.549Z,29.80
2018-08-07T00:11:47.059Z,29.80
2018-08-07T00:14:14.533Z,29.80
2018-08-07T00:16:42.085Z,29.80
2018-08-07T00:19:09.670Z,29.80
2018-08-07T00:21:37.245Z,29.70
2018-08-07T00:24:04.827Z,29.80
2018-08-07T00:28:59.895Z,29.70
2018-08-07T00:31:27.453Z,29.10
2018-08-07T00:33:55.063Z,29.70
2018-08-07T00:38:49.986Z,29.60
2018-08-07T00:41:17.515Z,29.60
2018-08-07T00:43:45.051Z,29.60
2018-08-07T00:46:12.622Z,29.60
2018-08-07T00:48:40.160Z,29.60
2018-08-07T00:51:07.672Z,29.50
2018-08-07T00:56:02.636Z,29.50
2018-08-07T00:58:30.226Z,29.50
2018-08-07T01:00:57.806Z,29.50
2018-08-07T01:05:52.918Z,29.40
2018-08-07T01:10:47.898Z,29.40
2018-08-07T01:13:15.378Z,29.40
2018-08-07T01:15:42.892Z,29.30
2018-08-07T01:18:10.414Z,29.30
2018-08-07T01:25:32.796Z,29.20
2018-08-07T01:28:00.350Z,29.20
2018-08-07T01:30:29.038Z,29.10
2018-08-07T01:32:56.758Z,29.10
2018-08-07T01:35:25.265Z,29.10
2018-08-07T01:42:47.702Z,29.10
2018-08-07T01:45:15.304Z,29.10
2018-08-07T01:47:42.865Z,29.10
2018-08-07T01:50:12.462Z,29.00
2018-08-07T01:57:35.855Z,28.90
2018-08-07T02:02:31.957Z,28.90
2018-08-07T02:04:59.596Z,28.90
2018-08-07T02:07:27.068Z,28.90
2018-08-07T02:09:54.655Z,28.80
2018-08-07T02:12:22.197Z,28.10
2018-08-07T02:14:49.708Z,28.80
2018-08-07T02:17:17.261Z,28.80
2018-08-07T02:19:44.753Z,28.80
2018-08-07T02:22:12.287Z,28.80
2018-08-07T02:24:39.795Z,30.00
2018-08-07T02:27:07.337Z,28.80
2018-08-07T02:29:34.977Z,28.80
2018-08-07T02:32:02.477Z,28.60
2018-08-07T02:39:24.867Z,28.70
2018-08-07T02:41:52.371Z,28.30
2018-08-07T02:44:19.868Z,28.60
2018-08-07T02:49:14.857Z,28.70
2018-08-07T02:51:42.316Z,28.60
2018-08-07T02:54:09.869Z,28.60
2018-08-07T02:56:37.406Z,28.70
2018-08-07T02:59:04.985Z,28.60
2018-08-07T03:01:32.525Z,28.60
2018-08-07T03:04:00.141Z,28.60
2018-08-07T03:06:27.716Z,28.70
2018-08-07T03:08:55.303Z,28.50
2018-08-07T03:11:22.795Z,28.50
2018-08-07T03:13:50.415Z,28.50
2018-08-07T03:16:18.013Z,28.70
2018-08-07T03:18:45.530Z,27.80
2018-08-07T03:21:13.433Z,28.50
2018-08-07T03:23:40.929Z,28.50
2018-08-07T03:26:08.467Z,28.40
2018-08-07T03:28:36.005Z,28.40
2018-08-07T03:31:03.555Z,28.30
2018-08-07T03:33:31.111Z,28.30
2018-08-07T03:35:58.600Z,28.30
2018-08-07T03:38:26.116Z,28.30
2018-08-07T03:40:53.656Z,28.20
2018-08-07T03:43:21.242Z,28.20
2018-08-07T03:45:48.762Z,28.20
2018-08-07T03:48:16.300Z,28.10
2018-08-07T03:50:44.486Z,28.10
2018-08-07T03:53:12.115Z,28.20
2018-08-07T03:55:39.504Z,28.10
2018-08-07T03:58:07.016Z,28.10
2018-08-07T04:00:39.100Z,28.10
2018-08-07T04:03:06.638Z,28.00
2018-08-07T04:05:34.176Z,28.20
2018-08-07T04:08:01.872Z,28.10
2018-08-07T04:12:56.856Z,28.20
2018-08-07T04:15:25.019Z,28.10
2018-08-07T04:17:52.581Z,28.10
2018-08-07T04:20:20.068Z,28.10
2018-08-07T04:22:47.588Z,28.10
2018-08-07T04:25:15.198Z,28.10
2018-08-07T04:27:42.764Z,28.10
2018-08-07T04:30:16.365Z,28.10
2018-08-07T04:35:12.320Z,28.10
2018-08-07T04:37:39.803Z,28.10
2018-08-07T04:40:08.123Z,28.10
2018-08-07T04:45:06.018Z,28.10
2018-08-07T04:47:33.508Z,28.10
2018-08-07T04:50:01.393Z,28.10
2018-08-07T04:52:28.887Z,28.00
2018-08-07T04:57:23.742Z,28.10
2018-08-07T04:59:51.311Z,28.10
2018-08-07T05:02:18.957Z,28.20
2018-08-07T05:04:46.602Z,27.90
2018-08-07T05:07:14.099Z,28.20
2018-08-07T05:09:41.571Z,28.00
2018-08-07T05:12:09.183Z,28.10
2018-08-07T05:14:36.741Z,28.00
2018-08-07T05:17:04.316Z,28.00
2018-08-07T05:19:31.861Z,27.90
2018-08-07T05:21:59.426Z,27.80
2018-08-07T05:24:26.985Z,28.00
2018-08-07T05:26:55.051Z,27.90
2018-08-07T05:29:22.601Z,27.90
2018-08-07T05:31:50.095Z,27.90
2018-08-07T05:34:17.590Z,27.90
2018-08-07T05:39:12.627Z,27.90
2018-08-07T05:41:40.199Z,27.90
2018-08-07T05:44:07.847Z,27.90
2018-08-07T05:46:35.447Z,27.90
2018-08-07T05:49:03.035Z,27.90
2018-08-07T05:53:58.666Z,27.90
2018-08-07T05:58:53.788Z,27.90
2018-08-07T06:03:48.800Z,27.90
2018-08-07T06:08:43.769Z,28.00
2018-08-07T06:11:11.256Z,27.90
2018-08-07T06:13:38.782Z,28.00
2018-08-07T06:16:06.363Z,28.00
2018-08-07T06:18:33.899Z,28.00
2018-08-07T06:21:01.576Z,28.00
2018-08-07T06:23:29.131Z,28.10
2018-08-07T06:25:56.707Z,28.00
2018-08-07T06:28:24.242Z,28.00
2018-08-07T06:30:51.784Z,28.00
2018-08-07T06:33:19.255Z,28.10
2018-08-07T06:35:46.833Z,28.00
2018-08-07T06:38:14.399Z,28.10
2018-08-07T06:40:41.944Z,28.10
2018-08-07T06:43:09.472Z,28.00
2018-08-07T06:45:36.958Z,28.10
2018-08-07T06:48:05.431Z,28.50
2018-08-07T06:50:32.866Z,28.00
2018-08-07T06:53:00.369Z,28.00
2018-08-07T06:55:27.804Z,28.00
2018-08-07T06:57:55.261Z,28.00
2018-08-07T07:00:24.074Z,28.00
2018-08-07T07:02:52.088Z,28.00
2018-08-07T07:05:19.946Z,28.00
2018-08-07T07:07:47.462Z,28.20
2018-08-07T07:10:15.005Z,28.00
2018-08-07T07:12:43.800Z,28.10
2018-08-07T07:15:12.735Z,28.10
2018-08-07T07:17:40.434Z,28.20
2018-08-07T07:20:11.492Z,28.00
2018-08-07T07:22:39.269Z,28.20
2018-08-07T07:25:07.248Z,28.30
2018-08-07T07:27:34.786Z,28.40
2018-08-07T07:30:02.445Z,28.50
2018-08-07T07:32:29.926Z,28.50
2018-08-07T07:34:57.593Z,28.60
2018-08-07T07:39:53.361Z,28.70
2018-08-07T07:42:20.844Z,28.80
2018-08-07T07:44:48.403Z,28.90
2018-08-07T07:47:15.883Z,29.00
2018-08-07T07:49:43.375Z,29.20
2018-08-07T07:52:10.910Z,29.30
2018-08-07T07:57:05.908Z,29.60
2018-08-07T07:59:33.370Z,29.50
2018-08-07T08:04:28.308Z,30.00
2018-08-07T08:06:55.824Z,30.10
2018-08-07T08:09:23.278Z,30.30
2018-08-07T08:11:50.830Z,30.40
2018-08-07T08:14:18.401Z,30.50
2018-08-07T08:16:45.890Z,30.60
2018-08-07T08:19:13.450Z,30.70
2018-08-07T08:21:41.009Z,30.80
2018-08-07T08:24:08.533Z,30.90
2018-08-07T08:26:36.080Z,30.90
2018-08-07T08:29:03.627Z,31.00
2018-08-07T08:31:31.113Z,31.10
2018-08-07T08:33:58.719Z,31.20
2018-08-07T08:36:26.288Z,31.30
2018-08-07T08:38:54.121Z,31.30
2018-08-07T08:43:49.034Z,31.70
2018-08-07T08:46:16.486Z,31.80
2018-08-07T08:53:38.884Z,32.30
2018-08-07T08:56:06.441Z,32.40
2018-08-07T08:58:33.909Z,32.60
2018-08-07T09:01:01.403Z,32.80
2018-08-07T09:03:28.964Z,33.00
2018-08-07T09:08:23.877Z,33.30
2018-08-07T09:10:51.476Z,33.50
2018-08-07T09:13:18.955Z,33.70
2018-08-07T09:15:46.442Z,33.80
2018-08-07T09:18:14.167Z,34.10
2018-08-07T09:20:41.708Z,34.20
2018-08-07T09:23:09.976Z,34.50
2018-08-07T09:25:37.661Z,34.70
2018-08-07T09:28:05.089Z,34.90
2018-08-07T09:30:32.616Z,35.10
2018-08-07T09:33:00.945Z,35.40
2018-08-07T09:35:28.513Z,35.70
2018-08-07T09:37:56.768Z,36.00
2018-08-07T09:40:24.458Z,36.40
2018-08-07T09:42:53.239Z,36.80
2018-08-07T09:45:24.254Z,37.10
2018-08-07T09:47:51.772Z,37.50
2018-08-07T09:50:19.978Z,37.90
2018-08-07T09:52:48.128Z,38.30
2018-08-07T09:57:43.152Z,38.90
2018-08-07T10:02:44.207Z,39.40
2018-08-07T10:05:11.836Z,39.50
2018-08-07T10:07:39.259Z,39.60
2018-08-07T10:10:06.775Z,39.60
2018-08-07T10:12:34.277Z,39.70
2018-08-07T10:15:01.768Z,39.70
2018-08-07T10:17:29.270Z,39.80
2018-08-07T10:19:56.785Z,39.60
2018-08-07T10:22:24.490Z,39.60
2018-08-07T10:24:52.106Z,39.80
2018-08-07T10:27:21.172Z,39.90
2018-08-07T10:29:48.692Z,40.00
2018-08-07T10:32:16.197Z,40.30
2018-08-07T10:34:43.683Z,40.60
2018-08-07T10:37:11.320Z,41.00
2018-08-07T10:39:39.015Z,41.40
2018-08-07T10:42:06.519Z,41.60
2018-08-07T10:44:34.118Z,42.00
2018-08-07T10:47:01.761Z,42.00
2018-08-07T10:49:29.335Z,42.10
2018-08-07T10:51:56.881Z,42.10
2018-08-07T10:54:24.393Z,41.80
2018-08-07T10:56:51.953Z,41.70
2018-08-07T10:59:19.465Z,42.30
2018-08-07T11:01:46.989Z,41.40
2018-08-07T11:04:14.521Z,41.10
2018-08-07T11:06:41.993Z,40.90
2018-08-07T11:09:10.132Z,40.70
2018-08-07T11:11:37.682Z,40.50
2018-08-07T11:14:05.407Z,40.30
2018-08-07T11:16:33.123Z,40.10
2018-08-07T11:19:01.251Z,39.90
2018-08-07T11:21:28.956Z,39.70
2018-08-07T11:26:23.954Z,39.40
2018-08-07T11:28:51.459Z,39.20
2018-08-07T11:31:19.984Z,39.10
2018-08-07T11:33:47.506Z,39.00
2018-08-07T11:36:15.024Z,38.90
2018-08-07T11:38:42.495Z,38.80
2018-08-07T11:41:09.999Z,38.80
2018-08-07T11:43:37.785Z,38.70
2018-08-07T11:51:00.470Z,38.60
2018-08-07T11:55:55.398Z,38.60
2018-08-07T11:58:22.899Z,38.50
2018-08-07T12:00:50.409Z,38.60
2018-08-07T12:03:17.878Z,38.60
2018-08-07T12:05:45.459Z,38.60
2018-08-07T12:08:13.015Z,38.60
2018-08-07T12:10:40.516Z,38.60
2018-08-07T12:13:08.003Z,38.50
2018-08-07T12:15:35.466Z,38.50
2018-08-07T12:18:03.364Z,38.50
2018-08-07T12:20:30.902Z,38.50
2018-08-07T12:22:58.421Z,38.50
2018-08-07T12:27:53.557Z,38.50
2018-08-07T12:30:24.294Z,38.50
2018-08-07T12:32:51.871Z,38.50
2018-08-07T12:35:19.499Z,38.50
2018-08-07T12:37:47.150Z,38.50
2018-08-07T12:40:17.585Z,38.50
2018-08-07T12:45:13.128Z,38.50
2018-08-07T12:47:41.583Z,38.50
2018-08-07T12:52:38.469Z,38.50
2018-08-07T12:55:06.790Z,38.50
2018-08-07T12:57:34.446Z,38.40
2018-08-07T13:00:02.775Z,38.20
2018-08-07T13:02:30.310Z,38.20
2018-08-07T13:07:25.641Z,38.00
2018-08-07T13:09:53.373Z,37.90
2018-08-07T13:12:21.031Z,37.80
2018-08-07T13:14:48.942Z,37.70
2018-08-07T13:17:18.879Z,37.50
2018-08-07T13:22:13.818Z,37.40
2018-08-07T13:24:41.385Z,37.00
2018-08-07T13:27:08.900Z,37.10
2018-08-07T13:29:36.513Z,36.90
2018-08-07T13:36:58.976Z,36.70
2018-08-07T13:39:26.541Z,36.50
2018-08-07T13:41:54.089Z,36.40
2018-08-07T13:44:21.516Z,36.20
2018-08-07T13:46:49.058Z,36.20
2018-08-07T13:49:16.576Z,36.10
2018-08-07T13:54:11.556Z,35.90
2018-08-07T13:56:39.052Z,35.70
2018-08-07T13:59:06.555Z,35.60
2018-08-07T14:01:34.111Z,35.60
2018-08-07T14:04:01.677Z,35.40
2018-08-07T14:06:29.263Z,35.20
2018-08-07T14:08:56.783Z,35.30
2018-08-07T14:11:24.311Z,35.30
2018-08-07T14:13:51.883Z,35.20
2018-08-07T14:16:19.387Z,35.20
2018-08-07T14:18:51.851Z,35.00
2018-08-07T14:21:19.481Z,34.80
2018-08-07T14:23:47.059Z,34.80
2018-08-07T14:26:14.587Z,34.70
2018-08-07T14:28:42.184Z,34.50
2018-08-07T14:31:09.665Z,34.20
2018-08-07T14:33:37.095Z,34.30
2018-08-07T14:36:04.694Z,34.10
2018-08-07T14:38:32.191Z,34.00
2018-08-07T14:40:59.738Z,33.90
2018-08-07T14:43:27.327Z,33.80
2018-08-07T14:45:54.857Z,33.70
2018-08-07T14:48:22.337Z,33.70
2018-08-07T14:50:49.795Z,33.70
2018-08-07T14:53:17.337Z,33.60
2018-08-07T14:55:44.933Z,33.60
2018-08-07T14:58:13.671Z,33.60
2018-08-07T15:00:41.187Z,33.60
2018-08-07T15:03:08.767Z,33.60
2018-08-07T15:05:36.266Z,33.50
2018-08-07T15:08:03.823Z,33.60
2018-08-07T15:10:31.375Z,33.60
2018-08-07T15:12:58.979Z,33.60
2018-08-07T15:15:28.609Z,33.50
2018-08-07T15:20:25.206Z,33.50
2018-08-07T15:22:53.476Z,33.50
2018-08-07T15:25:21.689Z,33.40
2018-08-07T15:27:49.301Z,33.40
2018-08-07T15:30:18.164Z,33.40
2018-08-07T15:32:46.655Z,33.30
2018-08-07T15:35:15.753Z,33.30
2018-08-07T15:37:43.862Z,33.20
2018-08-07T15:40:14.627Z,33.20
2018-08-07T15:42:43.229Z,33.00
2018-08-07T15:45:11.148Z,32.90
2018-08-07T15:47:38.713Z,32.70
2018-08-07T15:50:10.360Z,32.60
2018-08-07T15:52:38.486Z,32.40
2018-08-07T15:55:06.091Z,32.30
2018-08-07T15:57:33.640Z,32.20
2018-08-07T16:00:01.171Z,32.10
2018-08-07T16:02:28.724Z,32.00
2018-08-07T16:04:56.326Z,32.00
2018-08-07T16:07:23.877Z,32.00
2018-08-07T16:09:51.370Z,32.00
2018-08-07T16:12:18.842Z,31.90
2018-08-07T16:17:13.845Z,31.90
2018-08-07T16:19:41.250Z,31.70
2018-08-07T16:22:08.788Z,31.80
2018-08-07T16:27:03.744Z,31.80
2018-08-07T16:29:31.231Z,31.80
2018-08-07T16:31:58.793Z,31.80
2018-08-07T16:34:26.377Z,31.80
2018-08-07T16:36:53.924Z,31.70
2018-08-07T16:39:21.439Z,31.60
2018-08-07T16:41:48.930Z,31.70
2018-08-07T16:44:49.944Z,31.50
2018-08-07T16:47:17.510Z,29.60
2018-08-07T16:49:45.399Z,31.40
2018-08-07T16:52:12.903Z,31.30
2018-08-07T16:54:40.372Z,31.40
2018-08-07T16:57:07.953Z,31.40
2018-08-07T16:59:35.378Z,31.40
2018-08-07T17:02:02.961Z,31.30
2018-08-07T17:04:30.472Z,31.40
2018-08-07T17:06:57.949Z,31.40
2018-08-07T17:09:25.523Z,31.40
2018-08-07T17:11:53.088Z,31.40
2018-08-07T17:14:20.538Z,31.40
2018-08-07T17:16:48.145Z,31.40
2018-08-07T17:19:15.719Z,31.40
2018-08-07T17:21:43.250Z,31.40
2018-08-07T17:24:10.802Z,31.50
2018-08-07T17:26:38.320Z,31.50
2018-08-07T17:29:05.821Z,31.50
2018-08-07T17:31:33.400Z,31.50
2018-08-07T17:34:00.924Z,31.50
2018-08-07T17:36:28.522Z,31.50
2018-08-07T17:38:56.074Z,31.50
2018-08-07T17:41:23.616Z,31.50
2018-08-07T17:43:51.143Z,31.60
2018-08-07T17:46:18.819Z,31.50
2018-08-07T17:48:46.552Z,31.60
2018-08-07T17:51:14.115Z,31.60
2018-08-07T17:53:41.635Z,31.50
2018-08-07T17:56:09.160Z,31.30
2018-08-07T17:58:36.666Z,31.60
2018-08-07T18:01:04.260Z,31.50
2018-08-07T18:03:31.880Z,31.50
2018-08-07T18:05:59.427Z,31.50
2018-08-07T18:08:26.937Z,31.50
2018-08-07T18:10:54.459Z,31.50
2018-08-07T18:13:22.098Z,31.40
2018-08-07T18:15:49.601Z,31.50
2018-08-07T18:18:17.133Z,31.50
2018-08-07T18:20:44.660Z,31.40
2018-08-07T18:23:12.169Z,31.40
2018-08-07T18:25:39.687Z,31.40
2018-08-07T18:28:07.238Z,31.40
2018-08-07T18:30:35.410Z,31.40
2018-08-07T18:33:02.993Z,31.40
2018-08-07T18:37:42.789Z,31.30
2018-08-07T18:40:10.370Z,31.30
2018-08-07T18:42:37.982Z,31.20
2018-08-07T18:45:07.508Z,31.10
2018-08-07T18:47:35.099Z,31.00
2018-08-07T18:50:02.662Z,30.90
2018-08-07T18:52:30.254Z,30.90
2018-08-07T18:54:57.794Z,30.90
2018-08-07T18:57:25.452Z,30.90
2018-08-07T18:59:52.942Z,30.80
2018-08-07T19:02:20.509Z,30.60
2018-08-07T19:04:48.124Z,30.70
2018-08-07T19:07:15.656Z,30.70
2018-08-07T19:09:43.216Z,30.80
2018-08-07T19:12:10.760Z,30.60
2018-08-07T19:14:38.269Z,30.50
2018-08-07T19:17:18.074Z,30.50
2018-08-07T19:19:45.658Z,30.40
2018-08-07T19:22:13.188Z,30.40
2018-08-07T19:24:40.734Z,30.30
2018-08-07T19:27:08.297Z,30.30
2018-08-07T19:29:35.880Z,30.20
2018-08-07T19:32:03.372Z,30.20
2018-08-07T19:34:30.892Z,30.20
2018-08-07T19:36:58.378Z,30.10
2018-08-07T19:39:25.890Z,30.20
2018-08-07T19:41:53.433Z,30.10
2018-08-07T19:44:21.084Z,30.00
2018-08-07T19:46:48.627Z,30.00
2018-08-07T19:49:16.114Z,29.90
2018-08-07T19:51:43.676Z,29.90
2018-08-07T19:54:11.243Z,29.90
2018-08-07T19:56:38.902Z,29.80
2018-08-07T19:59:06.420Z,29.80
2018-08-07T20:01:33.959Z,29.70
2018-08-07T20:04:01.438Z,29.70
2018-08-07T20:06:28.946Z,29.70
2018-08-07T20:08:56.534Z,29.60
2018-08-07T20:11:24.124Z,29.60
2018-08-07T20:13:51.711Z,29.60
2018-08-07T20:16:19.214Z,29.60
2018-08-07T20:18:46.767Z,29.60
2018-08-07T20:21:14.244Z,29.70
2018-08-07T20:23:41.780Z,29.60
2018-08-07T20:26:09.496Z,29.70
2018-08-07T20:28:37.019Z,29.60
2018-08-07T20:31:04.635Z,29.60
2018-08-07T20:33:32.130Z,29.30
2018-08-07T20:35:59.634Z,29.50
2018-08-07T20:38:27.225Z,29.50
2018-08-07T20:40:54.772Z,29.50
2018-08-07T20:43:22.410Z,29.50
2018-08-07T20:45:49.967Z,29.50
2018-08-07T20:48:17.488Z,29.40
2018-08-07T20:53:19.338Z,29.40
2018-08-07T20:55:46.936Z,29.40
2018-08-07T20:58:14.449Z,29.40
2018-08-07T21:00:42.007Z,29.20
2018-08-07T21:03:09.540Z,29.30
2018-08-07T21:05:37.140Z,29.30
2018-08-07T21:08:04.851Z,29.20
2018-08-07T21:10:33.233Z,29.20
2018-08-07T21:13:00.815Z,29.20
2018-08-07T21:15:28.433Z,29.10
2018-08-07T21:17:56.035Z,29.10
2018-08-07T21:20:25.212Z,29.00
2018-08-07T21:22:53.401Z,29.30
2018-08-07T21:25:22.412Z,28.90
2018-08-07T21:27:55.558Z,28.90
2018-08-07T21:30:24.645Z,28.90
2018-08-07T21:32:52.243Z,28.80
2018-08-07T21:35:19.846Z,28.70
2018-08-07T21:37:47.426Z,28.70
2018-08-07T21:40:16.356Z,28.60
2018-08-07T21:42:44.360Z,28.60
2018-08-07T21:45:12.420Z,28.50
2018-08-07T21:47:39.924Z,28.50
2018-08-07T21:50:10.609Z,28.20
2018-08-07T21:52:38.152Z,28.40
2018-08-07T21:55:06.952Z,28.40
2018-08-07T21:57:34.845Z,28.40
2018-08-07T22:00:02.603Z,28.40
2018-08-07T22:02:30.159Z,28.40
2018-08-07T22:04:57.673Z,28.40
2018-08-07T22:07:25.373Z,28.40
2018-08-07T22:09:52.850Z,28.40
2018-08-07T22:12:20.428Z,28.40
2018-08-07T22:14:47.930Z,28.30
2018-08-07T22:17:15.593Z,26.00
2018-08-07T22:19:43.159Z,28.30
2018-08-07T22:22:10.769Z,28.30
2018-08-07T22:24:38.279Z,28.30
2018-08-07T22:27:05.892Z,28.20
2018-08-07T22:29:33.410Z,28.20
2018-08-07T22:32:00.959Z,28.20
2018-08-07T22:34:28.442Z,28.20
2018-08-07T22:36:55.944Z,28.20
2018-08-07T22:39:23.408Z,28.20
2018-08-07T22:41:50.868Z,28.10
2018-08-07T22:44:18.364Z,28.20
2018-08-07T22:46:45.877Z,28.10
2018-08-07T22:49:13.465Z,28.10
2018-08-07T22:51:41.001Z,28.10
2018-08-07T22:54:08.466Z,28.10
2018-08-07T22:56:35.937Z,28.10
2018-08-07T22:59:03.517Z,28.10
2018-08-07T23:01:31.981Z,28.00
2018-08-07T23:03:59.435Z,28.00
2018-08-07T23:06:27.052Z,28.00
2018-08-07T23:08:54.564Z,28.00
2018-08-07T23:11:22.035Z,28.00
2018-08-07T23:13:49.504Z,28.00
2018-08-07T23:16:16.967Z,28.00
2018-08-07T23:18:44.507Z,28.00
2018-08-07T23:21:12.015Z,28.00
2018-08-07T23:23:39.537Z,28.00
2018-08-07T23:26:07.081Z,27.70
2018-08-07T23:28:34.608Z,27.90
2018-08-07T23:31:02.137Z,27.90
2018-08-07T23:33:29.639Z,27.90
2018-08-07T23:35:57.123Z,27.90
2018-08-07T23:38:24.599Z,27.90
2018-08-07T23:40:52.079Z,27.80
2018-08-07T23:43:19.607Z,25.10
2018-08-07T23:45:47.119Z,27.80
2018-08-07T23:48:14.611Z,27.80
2018-08-07T23:50:42.155Z,27.80
2018-08-07T23:53:09.615Z,27.70
2018-08-07T23:55:37.187Z,27.70
2018-08-07T23:58:04.723Z,27.70
